Time,TemperatureF,DewpointF,PressureIn,WindDirection,WindDirectionDegrees,WindSpeedMPH,WindSpeedGustMPH,Humidity,HourlyPrecipIn,Conditions,Clouds,dailyrainin,SoftwareType,DateUTC
2013-09-16 00:14:00,54.3,53.0,30.13,SE,131,0.0,-999.0,96,-99.99,,,0.00,weatherlink.com 1.10,2013-09-16 04:14:00,
2013-09-16 00:29:00,54.1,53.0,30.14,SE,131,0.0,-999.0,96,-99.99,,,0.00,weatherlink.com 1.10,2013-09-16 04:29:00,
2013-09-16 00:44:00,53.9,53.0,30.14,SE,131,0.0,-999.0,96,-99.99,,,0.00,weatherlink.com 1.10,2013-09-16 04:44:00,
2013-09-16 00:59:00,53.7,53.0,30.14,SE,131,0.0,-999.0,96,-99.99,,,0.00,weatherlink.com 1.10,2013-09-16 04:59:00,
2013-09-16 01:14:00,53.0,52.0,30.14,SE,131,0.0,-999.0,96,-99.99,,,0.00,weatherlink.com 1.10,2013-09-16 05:14:00,
2013-09-16 01:29:00,52.3,51.0,30.14,SE,131,0.0,-999.0,96,-99.99,,,0.00,weatherlink.com 1.10,2013-09-16 05:29:00,
2013-09-16 01:44:00,52.1,51.0,30.15,SE,131,0.0,-999.0,96,-99.99,,,0.00,weatherlink.com 1.10,2013-09-16 05:44:00,
2013-09-16 01:59:00,52.1,51.0,30.15,SE,131,0.0,-999.0,96,-99.99,,,0.00,weatherlink.com 1.10,2013-09-16 05:59:00,
2013-09-16 02:14:00,52.5,51.0,30.15,SE,131,0.0,-999.0,96,-99.99,,,0.00,weatherlink.com 1.10,2013-09-16 06:14:00,
2013-09-16 02:29:00,52.8,52.0,30.15,SE,131,0.0,-999.0,96,-99.99,,,0.00,weatherlink.com 1.10,2013-09-16 06:29:00,
2013-09-16 02:44:00,53.1,52.0,30.16,SE,131,0.0,-999.0,96,-99.99,,,0.00,weatherlink.com 1.10,2013-09-16 06:44:00,
2013-09-16 02:59:00,53.6,53.0,30.16,SE,131,0.0,-999.0,96,-99.99,,,0.00,weatherlink.com 1.10,2013-09-16 06:59:00,
2013-09-16 03:14:00,53.8,53.0,30.16,SE,131,0.0,-999.0,96,-99.99,,,0.00,weatherlink.com 1.10,2013-09-16 07:14:00,
2013-09-16 03:29:00,53.9,53.0,30.16,SE,131,0.0,-999.0,96,-99.99,,,0.00,weatherlink.com 1.10,2013-09-16 07:29:00,
2013-09-16 03:44:00,53.5,52.0,30.16,SE,131,0.0,-999.0,96,-99.99,,,0.00,weatherlink.com 1.10,2013-09-16 07:44:00,
2013-09-16 03:59:00,52.4,51.0,30.17,SE,131,0.0,-999.0,96,-99.99,,,0.00,weatherlink.com 1.10,2013-09-16 07:59:00,
2013-09-16 04:14:00,51.4,50.0,30.17,SE,131,0.0,-999.0,96,-99.99,,,0.00,weatherlink.com 1.10,2013-09-16 08:14:00,
2013-09-16 04:29:00,50.9,50.0,30.17,SE,131,0.0,-999.0,96,-99.99,,,0.00,weatherlink.com 1.10,2013-09-16 08:29:00,
2013-09-16 04:44:00,50.3,49.0,30.18,SE,131,0.0,-999.0,96,-99.99,,,0.00,weatherlink.com 1.10,2013-09-16 08:44:00,
2013-09-16 04:59:00,49.9,49.0,30.18,SE,131,0.0,-999.0,96,-99.99,,,0.00,weatherlink.com 1.10,2013-09-16 08:59:00,
2013-09-16 05:14:00,50.8,50.0,30.18,West,274,0.0,-999.0,97,-99.99,,,0.00,weatherlink.com 1.10,2013-09-16 09:14:00,
2013-09-16 05:29:00,52.4,52.0,30.19,WSW,257,0.0,-999.0,97,-99.99,,,0.00,weatherlink.com 1.10,2013-09-16 09:29:00,
2013-09-16 05:44:00,52.9,52.0,30.20,West,270,0.0,-999.0,97,-99.99,,,0.00,weatherlink.com 1.10,2013-09-16 09:44:00,
2013-09-16 05:59:00,53.3,53.0,30.20,SW,229,0.0,-999.0,97,-99.99,,,0.00,weatherlink.com 1.10,2013-09-16 09:59:00,
2013-09-16 06:14:00,53.6,53.0,30.20,NNW,332,0.0,-999.0,97,-99.99,,,0.00,weatherlink.com 1.10,2013-09-16 10:14:00,
2013-09-16 06:29:00,53.7,53.0,30.20,NW,314,0.0,-999.0,97,-99.99,,,0.00,weatherlink.com 1.10,2013-09-16 10:29:00,
2013-09-16 06:44:00,53.7,53.0,30.21,NW,314,0.0,-999.0,97,-99.99,,,0.00,weatherlink.com 1.10,2013-09-16 10:44:00,
2013-09-16 06:59:00,52.9,52.0,30.22,NW,314,0.0,-999.0,96,-99.99,,,0.00,weatherlink.com 1.10,2013-09-16 10:59:00,
2013-09-16 07:14:00,52.6,52.0,30.22,NW,314,0.0,-999.0,97,-99.99,,,0.00,weatherlink.com 1.10,2013-09-16 11:14:00,
2013-09-16 07:29:00,53.4,53.0,30.23,WNW,283,0.0,-999.0,97,-99.99,,,0.00,weatherlink.com 1.10,2013-09-16 11:29:00,
2013-09-16 07:44:00,53.7,53.0,30.23,West,268,0.0,-999.0,97,-99.99,,,0.00,weatherlink.com 1.10,2013-09-16 11:44:00,
2013-09-16 07:59:00,53.9,53.0,30.24,South,186,0.0,-999.0,97,-99.99,,,0.00,weatherlink.com 1.10,2013-09-16 11:59:00,
2013-09-16 08:14:00,53.6,53.0,30.25,NE,56,0.0,-999.0,97,-99.99,,,0.00,weatherlink.com 1.10,2013-09-16 12:14:00,
2013-09-16 08:29:00,53.3,53.0,30.25,East,94,0.0,-999.0,97,-99.99,,,0.00,weatherlink.com 1.10,2013-09-16 12:29:00,
2013-09-16 08:44:00,53.9,53.0,30.25,SSE,160,0.0,-999.0,97,-99.99,,,0.00,weatherlink.com 1.10,2013-09-16 12:44:00,
2013-09-16 08:59:00,54.4,54.0,30.26,ENE,60,0.0,-999.0,97,-99.99,,,0.00,weatherlink.com 1.10,2013-09-16 12:59:00,
2013-09-16 09:14:00,54.2,53.0,30.27,North,9,0.0,-999.0,96,-99.99,,,0.00,weatherlink.com 1.10,2013-09-16 13:14:00,
2013-09-16 09:29:00,54.7,54.0,30.27,WNW,291,0.0,-999.0,97,-99.99,,,0.00,weatherlink.com 1.10,2013-09-16 13:29:00,
2013-09-16 09:44:00,54.9,54.0,30.28,ENE,65,1.0,-999.0,96,-99.99,,,0.00,weatherlink.com 1.10,2013-09-16 13:44:00,
2013-09-16 09:59:00,55.0,54.0,30.29,WSW,246,0.0,-999.0,95,-99.99,,,0.00,weatherlink.com 1.10,2013-09-16 13:59:00,
2013-09-16 10:14:00,55.3,54.0,30.29,ESE,114,0.0,-999.0,94,-99.99,,,0.00,weatherlink.com 1.10,2013-09-16 14:14:00,
2013-09-16 10:29:00,55.9,54.0,30.30,South,172,1.0,-999.0,93,-99.99,,,0.00,weatherlink.com 1.10,2013-09-16 14:29:00,
2013-09-16 10:44:00,56.5,54.0,30.30,NNE,15,0.0,-999.0,90,-99.99,,,0.00,weatherlink.com 1.10,2013-09-16 14:44:00,
2013-09-16 10:59:00,57.0,54.0,30.31,West,271,2.0,-999.0,88,-99.99,,,0.00,weatherlink.com 1.10,2013-09-16 14:59:00,
2013-09-16 11:14:00,57.3,54.0,30.31,ENE,72,0.0,-999.0,87,-99.99,,,0.00,weatherlink.com 1.10,2013-09-16 15:14:00,
2013-09-16 11:29:00,57.6,54.0,30.31,East,90,0.0,-999.0,87,-99.99,,,0.00,weatherlink.com 1.10,2013-09-16 15:29:00,
2013-09-16 11:44:00,58.1,54.0,30.31,SSW,213,0.0,-999.0,85,-99.99,,,0.00,weatherlink.com 1.10,2013-09-16 15:44:00,
2013-09-16 11:59:00,58.1,53.0,30.32,South,169,1.0,-999.0,84,-99.99,,,0.00,weatherlink.com 1.10,2013-09-16 15:59:00,
2013-09-16 12:14:00,58.4,53.0,30.32,ESE,121,1.0,-999.0,83,-99.99,,,0.00,weatherlink.com 1.10,2013-09-16 16:14:00,
2013-09-16 12:29:00,59.6,54.0,30.31,SSW,202,0.0,-999.0,82,-99.99,,,0.00,weatherlink.com 1.10,2013-09-16 16:29:00,
2013-09-16 12:44:00,61.4,54.0,30.32,ESE,116,1.0,-999.0,77,-99.99,,,0.00,weatherlink.com 1.10,2013-09-16 16:44:00,
2013-09-16 12:59:00,62.1,54.0,30.32,North,359,0.0,-999.0,76,-99.99,,,0.00,weatherlink.com 1.10,2013-09-16 16:59:00,
2013-09-16 13:14:00,61.6,54.0,30.32,WNW,290,0.0,-999.0,77,-99.99,,,0.00,weatherlink.com 1.10,2013-09-16 17:14:00,
2013-09-16 13:29:00,63.2,54.0,30.32,ENE,68,2.0,-999.0,71,-99.99,,,0.00,weatherlink.com 1.10,2013-09-16 17:29:00,
2013-09-16 13:44:00,63.0,53.0,30.32,East,86,3.0,-999.0,71,-99.99,,,0.00,weatherlink.com 1.10,2013-09-16 17:44:00,
2013-09-16 13:59:00,64.4,55.0,30.32,South,186,3.0,-999.0,72,-99.99,,,0.00,weatherlink.com 1.10,2013-09-16 17:59:00,
2013-09-16 14:14:00,65.6,53.0,30.32,ENE,72,0.0,-999.0,64,-99.99,,,0.00,weatherlink.com 1.10,2013-09-16 18:14:00,
2013-09-16 14:29:00,64.6,53.0,30.32,NNE,18,0.0,-999.0,67,-99.99,,,0.00,weatherlink.com 1.10,2013-09-16 18:29:00,
2013-09-16 14:44:00,64.5,52.0,30.32,SE,143,0.0,-999.0,65,-99.99,,,0.00,weatherlink.com 1.10,2013-09-16 18:44:00,
2013-09-16 14:59:00,64.0,52.0,30.32,ESE,115,1.0,-999.0,66,-99.99,,,0.00,weatherlink.com 1.10,2013-09-16 18:59:00,
2013-09-16 15:14:00,64.5,51.0,30.32,ESE,109,1.0,-999.0,62,-99.99,,,0.00,weatherlink.com 1.10,2013-09-16 19:14:00,
2013-09-16 15:29:00,64.7,52.0,30.32,NNW,340,1.0,-999.0,64,-99.99,,,0.00,weatherlink.com 1.10,2013-09-16 19:29:00,
2013-09-16 15:44:00,63.6,51.0,30.32,West,264,3.0,-999.0,64,-99.99,,,0.00,weatherlink.com 1.10,2013-09-16 19:44:00,
2013-09-16 15:59:00,64.1,51.0,30.31,ESE,113,0.0,-999.0,62,-99.99,,,0.00,weatherlink.com 1.10,2013-09-16 19:59:00,
2013-09-16 16:14:00,62.8,51.0,30.31,West,280,1.0,-999.0,65,-99.99,,,0.00,weatherlink.com 1.10,2013-09-16 20:14:00,
2013-09-16 16:29:00,63.8,50.0,30.31,SSE,167,1.0,-999.0,62,-99.99,,,0.00,weatherlink.com 1.10,2013-09-16 20:29:00,
2013-09-16 16:44:00,64.0,50.0,30.31,North,9,0.0,-999.0,61,-99.99,,,0.00,weatherlink.com 1.10,2013-09-16 20:44:00,
2013-09-16 16:59:00,63.1,50.0,30.32,South,186,0.0,-999.0,63,-99.99,,,0.00,weatherlink.com 1.10,2013-09-16 20:59:00,
2013-09-16 17:14:00,62.2,51.0,30.32,East,100,1.0,-999.0,67,-99.99,,,0.00,weatherlink.com 1.10,2013-09-16 21:14:00,
2013-09-16 17:29:00,63.8,50.0,30.32,ESE,105,0.0,-999.0,62,-99.99,,,0.00,weatherlink.com 1.10,2013-09-16 21:29:00,
2013-09-16 17:44:00,63.8,49.0,30.32,SSE,168,0.0,-999.0,59,-99.99,,,0.00,weatherlink.com 1.10,2013-09-16 21:44:00,
2013-09-16 17:59:00,63.4,49.0,30.32,ESE,115,2.0,-999.0,60,-99.99,,,0.00,weatherlink.com 1.10,2013-09-16 21:59:00,
2013-09-16 18:14:00,61.3,50.0,30.32,ESE,110,0.0,-999.0,66,-99.99,,,0.00,weatherlink.com 1.10,2013-09-16 22:14:00,
2013-09-16 18:29:00,59.9,50.0,30.32,ESE,110,0.0,-999.0,70,-99.99,,,0.00,weatherlink.com 1.10,2013-09-16 22:29:00,
2013-09-16 18:44:00,59.0,51.0,30.32,ESE,110,0.0,-999.0,74,-99.99,,,0.00,weatherlink.com 1.10,2013-09-16 22:44:00,
2013-09-16 18:59:00,57.9,51.0,30.32,ESE,110,0.0,-999.0,78,-99.99,,,0.00,weatherlink.com 1.10,2013-09-16 22:59:00,
2013-09-16 19:14:00,57.0,51.0,30.32,ESE,110,0.0,-999.0,80,-99.99,,,0.00,weatherlink.com 1.10,2013-09-16 23:14:00,
2013-09-16 19:29:00,55.7,51.0,30.32,ESE,110,0.0,-999.0,83,-99.99,,,0.00,weatherlink.com 1.10,2013-09-16 23:29:00,
2013-09-16 19:44:00,54.0,50.0,30.32,ESE,108,0.0,-999.0,86,-99.99,,,0.00,weatherlink.com 1.10,2013-09-16 23:44:00,
2013-09-16 19:59:00,52.6,49.0,30.32,ESE,108,0.0,-999.0,88,-99.99,,,0.00,weatherlink.com 1.10,2013-09-16 23:59:00,
2013-09-16 20:14:00,51.1,48.0,30.33,ESE,108,0.0,-999.0,89,-99.99,,,0.00,weatherlink.com 1.10,2013-09-17 00:14:00,
2013-09-16 20:29:00,50.0,47.0,30.33,ESE,109,0.0,-999.0,90,-99.99,,,0.00,weatherlink.com 1.10,2013-09-17 00:29:00,
2013-09-16 20:59:00,49.6,47.0,30.34,ESE,109,0.0,-999.0,92,-99.99,,,0.00,weatherlink.com 1.10,2013-09-17 00:59:00,
2013-09-16 21:14:00,49.0,47.0,30.35,ESE,110,0.0,-999.0,92,-99.99,,,0.00,weatherlink.com 1.10,2013-09-17 01:14:00,
2013-09-16 21:29:00,48.5,47.0,30.35,ESE,110,0.0,-999.0,93,-99.99,,,0.00,weatherlink.com 1.10,2013-09-17 01:29:00,
2013-09-16 21:44:00,48.0,46.0,30.36,ESE,110,0.0,-999.0,94,-99.99,,,0.00,weatherlink.com 1.10,2013-09-17 01:44:00,
2013-09-16 21:59:00,47.4,46.0,30.36,ESE,110,0.0,-999.0,93,-99.99,,,0.00,weatherlink.com 1.10,2013-09-17 01:59:00,
2013-09-16 22:16:00,46.7,45.0,30.36,ESE,110,0.0,-999.0,94,-99.99,,,0.00,weatherlink.com 1.10,2013-09-17 02:16:00,
2013-09-16 22:29:00,46.0,44.0,30.36,ESE,110,0.0,-999.0,94,-99.99,,,0.00,weatherlink.com 1.10,2013-09-17 02:29:00,
2013-09-16 22:44:00,45.4,44.0,30.36,ESE,110,0.0,-999.0,94,-99.99,,,0.00,weatherlink.com 1.10,2013-09-17 02:44:00,
2013-09-16 22:59:00,45.0,43.0,30.36,ESE,110,0.0,-999.0,94,-99.99,,,0.00,weatherlink.com 1.10,2013-09-17 02:59:00,
2013-09-16 23:14:00,44.7,43.0,30.36,ESE,110,0.0,-999.0,94,-99.99,,,0.00,weatherlink.com 1.10,2013-09-17 03:14:00,
2013-09-16 23:29:00,45.4,44.0,30.36,ESE,110,0.0,-999.0,95,-99.99,,,0.00,weatherlink.com 1.10,2013-09-17 03:29:00,
2013-09-16 23:44:00,45.3,44.0,30.37,ESE,110,0.0,-999.0,95,-99.99,,,0.00,weatherlink.com 1.10,2013-09-17 03:44:00,
2013-09-16 23:59:00,44.5,43.0,30.37,ESE,110,0.0,-999.0,95,-99.99,,,0.00,weatherlink.com 1.10,2013-09-17 03:59:00,